Terminal Aerodrome Forecast
Issued by NWS Upton, NY

Home | Current Version | Previous Version | Text Only | Print | Product List | Glossary On
Versions: 1 2 3 4 5 6 7 8 9 10 11 12 13 14 15 16 17 18 19 20 21 22 23 24 25 26 27
365
FTUS41 KOKX 041434 AAA
TAFISP
TAF AMD
KISP 041434Z 0415/0512 33010KT P6SM FEW045 SCT250
     FM042200 35007KT P6SM BKN250
     FM050000 VRB03KT P6SM BKN120 BKN250
     FM050700 VRB03KT 6SM -RASN SCT025 OVC080
     FM051000 14005KT 4SM -RA SCT010 BKN020 OVC040=

USA.gov is the U.S. government's official web portal to all federal, state and local government web resources and services.